sensor_id;sensor_type;location;lat;lon;timestamp;temperature;humidity
3281;DHT22;1652;51.318;6.202;2022-07-29T00:00:59;19.40;1.00
3281;DHT22;1652;51.318;6.202;2022-07-29T00:03:26;19.40;1.00
3281;DHT22;1652;51.318;6.202;2022-07-29T00:05:52;19.40;1.00
3281;DHT22;1652;51.318;6.202;2022-07-29T00:08:19;19.40;1.00
3281;DHT22;1652;51.318;6.202;2022-07-29T00:10:46;19.40;1.00
3281;DHT22;1652;51.318;6.202;2022-07-29T00:13:13;19.30;1.00
3281;DHT22;1652;51.318;6.202;2022-07-29T00:15:40;19.30;1.00
3281;DHT22;1652;51.318;6.202;2022-07-29T00:18:07;19.30;1.00
3281;DHT22;1652;51.318;6.202;2022-07-29T00:20:34;19.30;1.00
3281;DHT22;1652;51.318;6.202;2022-07-29T00:23:01;19.20;1.00
3281;DHT22;1652;51.318;6.202;2022-07-29T00:25:28;19.20;1.00
3281;DHT22;1652;51.318;6.202;2022-07-29T00:27:56;19.20;1.00
3281;DHT22;1652;51.318;6.202;2022-07-29T00:30:23;19.20;1.00
3281;DHT22;1652;51.318;6.202;2022-07-29T00:32:50;19.10;1.00
3281;DHT22;1652;51.318;6.202;2022-07-29T00:35:16;19.10;1.00
3281;DHT22;1652;51.318;6.202;2022-07-29T00:38:20;19.20;1.00
3281;DHT22;1652;51.318;6.202;2022-07-29T00:40:47;19.10;1.00
3281;DHT22;1652;51.318;6.202;2022-07-29T00:43:15;19.20;1.00
3281;DHT22;1652;51.318;6.202;2022-07-29T00:45:43;19.10;1.00
3281;DHT22;1652;51.318;6.202;2022-07-29T00:48:10;19.00;1.00
3281;DHT22;1652;51.318;6.202;2022-07-29T00:50:38;19.00;1.00
3281;DHT22;1652;51.318;6.202;2022-07-29T00:53:08;19.00;1.00
3281;DHT22;1652;51.318;6.202;2022-07-29T00:55:35;19.00;1.00
3281;DHT22;1652;51.318;6.202;2022-07-29T00:58:02;19.00;1.00
3281;DHT22;1652;51.318;6.202;2022-07-29T01:00:30;19.00;1.00
3281;DHT22;1652;51.318;6.202;2022-07-29T01:02:57;19.00;1.00
3281;DHT22;1652;51.318;6.202;2022-07-29T01:05:26;19.00;1.00
3281;DHT22;1652;51.318;6.202;2022-07-29T01:08:15;19.00;1.00
3281;DHT22;1652;51.318;6.202;2022-07-29T01:10:43;19.00;1.00
3281;DHT22;1652;51.318;6.202;2022-07-29T01:13:11;19.00;1.00
3281;DHT22;1652;51.318;6.202;2022-07-29T01:15:44;19.00;1.00
3281;DHT22;1652;51.318;6.202;2022-07-29T01:18:28;19.10;1.00
3281;DHT22;1652;51.318;6.202;2022-07-29T01:30:12;19.00;1.00
3281;DHT22;1652;51.318;6.202;2022-07-29T01:32:42;19.00;94.20
3281;DHT22;1652;51.318;6.202;2022-07-29T01:35:26;19.00;99.90
3281;DHT22;1652;51.318;6.202;2022-07-29T01:38:09;18.90;1.00
3281;DHT22;1652;51.318;6.202;2022-07-29T01:40:48;18.90;26.60
3281;DHT22;1652;51.318;6.202;2022-07-29T01:43:20;18.70;99.90
3281;DHT22;1652;51.318;6.202;2022-07-29T01:51:14;18.10;1.00
3281;DHT22;1652;51.318;6.202;2022-07-29T01:53:55;18.00;1.00
3281;DHT22;1652;51.318;6.202;2022-07-29T01:56:26;17.90;1.00
3281;DHT22;1652;51.318;6.202;2022-07-29T01:58:58;17.80;69.00
3281;DHT22;1652;51.318;6.202;2022-07-29T02:01:26;17.80;1.00
3281;DHT22;1652;51.318;6.202;2022-07-29T02:03:54;17.80;99.90
3281;DHT22;1652;51.318;6.202;2022-07-29T02:06:22;17.80;1.00
3281;DHT22;1652;51.318;6.202;2022-07-29T02:08:51;17.80;1.00
3281;DHT22;1652;51.318;6.202;2022-07-29T02:11:19;17.90;1.00
3281;DHT22;1652;51.318;6.202;2022-07-29T02:13:46;17.90;1.20
3281;DHT22;1652;51.318;6.202;2022-07-29T02:16:14;17.80;99.90
3281;DHT22;1652;51.318;6.202;2022-07-29T02:18:43;17.90;1.00
3281;DHT22;1652;51.318;6.202;2022-07-29T02:21:13;17.90;1.00
3281;DHT22;1652;51.318;6.202;2022-07-29T02:23:43;18.00;1.00
3281;DHT22;1652;51.318;6.202;2022-07-29T02:26:18;18.00;1.00
3281;DHT22;1652;51.318;6.202;2022-07-29T02:28:46;17.90;99.90
3281;DHT22;1652;51.318;6.202;2022-07-29T02:31:14;18.00;99.90
3281;DHT22;1652;51.318;6.202;2022-07-29T02:33:43;18.00;99.90
3281;DHT22;1652;51.318;6.202;2022-07-29T02:36:13;18.00;1.00
3281;DHT22;1652;51.318;6.202;2022-07-29T02:38:41;17.90;1.00
3281;DHT22;1652;51.318;6.202;2022-07-29T02:41:28;17.90;1.00
3281;DHT22;1652;51.318;6.202;2022-07-29T02:44:10;17.80;1.00
3281;DHT22;1652;51.318;6.202;2022-07-29T02:46:43;17.70;99.90
3281;DHT22;1652;51.318;6.202;2022-07-29T02:49:16;17.60;1.00
3281;DHT22;1652;51.318;6.202;2022-07-29T02:51:51;17.70;1.00
3281;DHT22;1652;51.318;6.202;2022-07-29T02:54:33;17.80;1.00
3281;DHT22;1652;51.318;6.202;2022-07-29T02:57:09;17.70;1.00
3281;DHT22;1652;51.318;6.202;2022-07-29T02:59:41;17.70;1.00
3281;DHT22;1652;51.318;6.202;2022-07-29T03:02:11;17.50;99.90
3281;DHT22;1652;51.318;6.202;2022-07-29T03:04:41;17.20;1.00
3281;DHT22;1652;51.318;6.202;2022-07-29T03:07:11;16.90;1.00
3281;DHT22;1652;51.318;6.202;2022-07-29T03:09:41;16.70;20.10
3281;DHT22;1652;51.318;6.202;2022-07-29T03:12:08;16.50;51.90
3281;DHT22;1652;51.318;6.202;2022-07-29T03:14:36;16.50;80.10
3281;DHT22;1652;51.318;6.202;2022-07-29T03:17:03;16.40;39.10
3281;DHT22;1652;51.318;6.202;2022-07-29T03:19:31;16.40;54.70
3281;DHT22;1652;51.318;6.202;2022-07-29T03:21:58;16.30;62.50
3281;DHT22;1652;51.318;6.202;2022-07-29T03:26:55;16.20;48.40
3281;DHT22;1652;51.318;6.202;2022-07-29T03:29:23;16.10;53.40
3281;DHT22;1652;51.318;6.202;2022-07-29T03:31:50;16.00;71.10
3281;DHT22;1652;51.318;6.202;2022-07-29T03:34:17;15.90;58.80
3281;DHT22;1652;51.318;6.202;2022-07-29T03:36:49;15.80;77.70
3281;DHT22;1652;51.318;6.202;2022-07-29T03:39:23;15.80;71.30
3281;DHT22;1652;51.318;6.202;2022-07-29T03:41:54;15.70;71.20
3281;DHT22;1652;51.318;6.202;2022-07-29T03:44:22;15.60;94.90
3281;DHT22;1652;51.318;6.202;2022-07-29T03:46:51;15.50;99.90
3281;DHT22;1652;51.318;6.202;2022-07-29T03:49:22;15.60;99.90
3281;DHT22;1652;51.318;6.202;2022-07-29T03:51:50;15.50;99.90
3281;DHT22;1652;51.318;6.202;2022-07-29T03:54:17;15.50;99.90
3281;DHT22;1652;51.318;6.202;2022-07-29T03:56:46;15.40;99.90
3281;DHT22;1652;51.318;6.202;2022-07-29T03:59:15;15.30;99.90
3281;DHT22;1652;51.318;6.202;2022-07-29T04:01:43;15.30;99.90
3281;DHT22;1652;51.318;6.202;2022-07-29T04:04:11;15.30;99.90
3281;DHT22;1652;51.318;6.202;2022-07-29T04:06:43;15.30;99.90
3281;DHT22;1652;51.318;6.202;2022-07-29T04:09:12;15.30;99.90
3281;DHT22;1652;51.318;6.202;2022-07-29T04:11:40;15.30;99.90
3281;DHT22;1652;51.318;6.202;2022-07-29T04:14:27;15.30;99.90
3281;DHT22;1652;51.318;6.202;2022-07-29T04:16:54;15.30;99.90
3281;DHT22;1652;51.318;6.202;2022-07-29T04:19:20;15.30;99.90
3281;DHT22;1652;51.318;6.202;2022-07-29T04:21:48;15.20;99.90
3281;DHT22;1652;51.318;6.202;2022-07-29T04:24:15;15.30;99.90
3281;DHT22;1652;51.318;6.202;2022-07-29T04:26:44;15.20;99.90
3281;DHT22;1652;51.318;6.202;2022-07-29T04:29:12;15.20;99.90
3281;DHT22;1652;51.318;6.202;2022-07-29T04:31:41;15.20;99.90
3281;DHT22;1652;51.318;6.202;2022-07-29T04:34:08;15.20;99.90
3281;DHT22;1652;51.318;6.202;2022-07-29T04:36:35;15.30;99.90
3281;DHT22;1652;51.318;6.202;2022-07-29T04:39:03;15.30;99.90
3281;DHT22;1652;51.318;6.202;2022-07-29T04:41:30;15.30;99.90
3281;DHT22;1652;51.318;6.202;2022-07-29T04:43:59;15.30;99.90
3281;DHT22;1652;51.318;6.202;2022-07-29T04:46:27;15.40;99.90
3281;DHT22;1652;51.318;6.202;2022-07-29T04:48:54;15.50;99.90
3281;DHT22;1652;51.318;6.202;2022-07-29T04:51:22;15.40;99.90
3281;DHT22;1652;51.318;6.202;2022-07-29T04:53:49;15.50;99.90
3281;DHT22;1652;51.318;6.202;2022-07-29T04:56:15;15.50;99.90
3281;DHT22;1652;51.318;6.202;2022-07-29T04:58:42;15.50;99.90
3281;DHT22;1652;51.318;6.202;2022-07-29T05:01:09;15.50;99.90
3281;DHT22;1652;51.318;6.202;2022-07-29T05:03:36;15.60;99.90
3281;DHT22;1652;51.318;6.202;2022-07-29T05:06:03;15.60;99.90
3281;DHT22;1652;51.318;6.202;2022-07-29T05:08:30;15.50;99.90
3281;DHT22;1652;51.318;6.202;2022-07-29T05:10:57;15.50;99.90
3281;DHT22;1652;51.318;6.202;2022-07-29T05:13:37;15.50;99.90
3281;DHT22;1652;51.318;6.202;2022-07-29T05:16:12;15.60;99.90
3281;DHT22;1652;51.318;6.202;2022-07-29T05:18:40;15.60;99.90
3281;DHT22;1652;51.318;6.202;2022-07-29T05:21:07;15.60;99.90
3281;DHT22;1652;51.318;6.202;2022-07-29T05:23:33;15.80;99.90
3281;DHT22;1652;51.318;6.202;2022-07-29T05:26:00;15.60;99.90
3281;DHT22;1652;51.318;6.202;2022-07-29T05:28:27;15.70;98.00
3281;DHT22;1652;51.318;6.202;2022-07-29T05:30:54;15.60;99.90
3281;DHT22;1652;51.318;6.202;2022-07-29T05:33:21;15.70;99.90
3281;DHT22;1652;51.318;6.202;2022-07-29T05:36:04;15.80;99.90
3281;DHT22;1652;51.318;6.202;2022-07-29T05:38:33;15.80;99.90
3281;DHT22;1652;51.318;6.202;2022-07-29T05:41:00;15.80;99.90
3281;DHT22;1652;51.318;6.202;2022-07-29T05:43:29;15.80;99.90
3281;DHT22;1652;51.318;6.202;2022-07-29T05:46:02;15.80;99.90
3281;DHT22;1652;51.318;6.202;2022-07-29T05:48:29;15.80;99.90
3281;DHT22;1652;51.318;6.202;2022-07-29T05:50:56;15.90;99.90
3281;DHT22;1652;51.318;6.202;2022-07-29T05:53:23;16.10;99.90
3281;DHT22;1652;51.318;6.202;2022-07-29T05:55:51;16.10;98.70
3281;DHT22;1652;51.318;6.202;2022-07-29T05:58:19;16.10;99.90
3281;DHT22;1652;51.318;6.202;2022-07-29T06:00:46;16.20;99.90
3281;DHT22;1652;51.318;6.202;2022-07-29T06:03:13;16.30;99.90
3281;DHT22;1652;51.318;6.202;2022-07-29T06:05:40;16.30;96.40
3281;DHT22;1652;51.318;6.202;2022-07-29T06:08:07;16.30;99.00
3281;DHT22;1652;51.318;6.202;2022-07-29T06:10:35;16.20;99.90
3281;DHT22;1652;51.318;6.202;2022-07-29T06:13:02;16.30;99.90
3281;DHT22;1652;51.318;6.202;2022-07-29T06:15:29;16.30;99.90
3281;DHT22;1652;51.318;6.202;2022-07-29T06:17:56;16.20;99.90
3281;DHT22;1652;51.318;6.202;2022-07-29T06:20:28;16.20;99.90
3281;DHT22;1652;51.318;6.202;2022-07-29T06:22:57;16.30;92.50
3281;DHT22;1652;51.318;6.202;2022-07-29T06:25:25;16.30;95.40
3281;DHT22;1652;51.318;6.202;2022-07-29T06:27:52;16.40;81.40
3281;DHT22;1652;51.318;6.202;2022-07-29T06:30:19;16.40;94.20
3281;DHT22;1652;51.318;6.202;2022-07-29T06:32:46;16.40;99.90
3281;DHT22;1652;51.318;6.202;2022-07-29T06:35:13;16.30;99.90
3281;DHT22;1652;51.318;6.202;2022-07-29T06:38:02;16.10;99.90
3281;DHT22;1652;51.318;6.202;2022-07-29T06:40:41;16.20;99.90
3281;DHT22;1652;51.318;6.202;2022-07-29T06:43:28;16.20;99.90
3281;DHT22;1652;51.318;6.202;2022-07-29T06:48:28;16.20;99.90
3281;DHT22;1652;51.318;6.202;2022-07-29T06:50:58;16.30;99.90
3281;DHT22;1652;51.318;6.202;2022-07-29T06:53:26;16.20;99.90
3281;DHT22;1652;51.318;6.202;2022-07-29T06:55:53;16.20;99.90
3281;DHT22;1652;51.318;6.202;2022-07-29T06:58:19;16.30;99.90
3281;DHT22;1652;51.318;6.202;2022-07-29T07:01:01;16.40;99.90
3281;DHT22;1652;51.318;6.202;2022-07-29T07:03:28;16.40;99.90
3281;DHT22;1652;51.318;6.202;2022-07-29T07:05:56;16.50;99.90
3281;DHT22;1652;51.318;6.202;2022-07-29T07:08:25;16.50;99.90
3281;DHT22;1652;51.318;6.202;2022-07-29T07:10:52;16.70;99.90
3281;DHT22;1652;51.318;6.202;2022-07-29T07:13:19;16.70;99.90
3281;DHT22;1652;51.318;6.202;2022-07-29T07:15:47;16.80;99.90
3281;DHT22;1652;51.318;6.202;2022-07-29T07:18:15;16.80;99.90
3281;DHT22;1652;51.318;6.202;2022-07-29T07:20:42;16.70;99.90
3281;DHT22;1652;51.318;6.202;2022-07-29T07:23:10;16.70;99.90
3281;DHT22;1652;51.318;6.202;2022-07-29T07:25:37;16.80;99.90
3281;DHT22;1652;51.318;6.202;2022-07-29T07:28:04;16.80;99.90
3281;DHT22;1652;51.318;6.202;2022-07-29T07:30:31;16.90;99.90
3281;DHT22;1652;51.318;6.202;2022-07-29T07:32:58;17.00;92.60
3281;DHT22;1652;51.318;6.202;2022-07-29T07:35:26;17.10;75.40
3281;DHT22;1652;51.318;6.202;2022-07-29T07:37:55;17.10;49.80
3281;DHT22;1652;51.318;6.202;2022-07-29T07:40:22;17.10;29.50
3281;DHT22;1652;51.318;6.202;2022-07-29T07:42:49;17.00;35.50
3281;DHT22;1652;51.318;6.202;2022-07-29T07:45:16;16.90;19.20
3281;DHT22;1652;51.318;6.202;2022-07-29T07:47:44;16.90;7.30
3281;DHT22;1652;51.318;6.202;2022-07-29T07:50:11;16.70;11.70
3281;DHT22;1652;51.318;6.202;2022-07-29T07:52:54;16.80;29.10
3281;DHT22;1652;51.318;6.202;2022-07-29T07:55:25;16.70;49.90
3281;DHT22;1652;51.318;6.202;2022-07-29T07:57:53;16.60;81.50
3281;DHT22;1652;51.318;6.202;2022-07-29T08:00:21;16.50;94.50
3281;DHT22;1652;51.318;6.202;2022-07-29T08:02:49;16.50;99.90
3281;DHT22;1652;51.318;6.202;2022-07-29T08:05:17;16.50;98.30
3281;DHT22;1652;51.318;6.202;2022-07-29T08:07:45;16.60;99.90
3281;DHT22;1652;51.318;6.202;2022-07-29T08:10:17;16.50;99.90
3281;DHT22;1652;51.318;6.202;2022-07-29T08:13:04;16.40;99.90
3281;DHT22;1652;51.318;6.202;2022-07-29T08:15:32;16.30;99.90
3281;DHT22;1652;51.318;6.202;2022-07-29T08:17:59;16.30;99.90
3281;DHT22;1652;51.318;6.202;2022-07-29T08:20:33;16.30;99.90
3281;DHT22;1652;51.318;6.202;2022-07-29T08:23:02;16.30;99.90
3281;DHT22;1652;51.318;6.202;2022-07-29T08:25:29;16.40;99.90
3281;DHT22;1652;51.318;6.202;2022-07-29T08:27:56;16.40;99.90
3281;DHT22;1652;51.318;6.202;2022-07-29T08:30:23;16.50;99.90
3281;DHT22;1652;51.318;6.202;2022-07-29T08:32:50;16.70;99.90
3281;DHT22;1652;51.318;6.202;2022-07-29T08:35:22;16.80;99.90
3281;DHT22;1652;51.318;6.202;2022-07-29T08:37:49;16.90;99.90
3281;DHT22;1652;51.318;6.202;2022-07-29T08:40:16;17.20;99.90
3281;DHT22;1652;51.318;6.202;2022-07-29T08:42:43;17.40;99.90
3281;DHT22;1652;51.318;6.202;2022-07-29T08:45:10;17.60;99.90
3281;DHT22;1652;51.318;6.202;2022-07-29T08:47:38;17.70;88.10
3281;DHT22;1652;51.318;6.202;2022-07-29T08:50:09;17.90;77.30
3281;DHT22;1652;51.318;6.202;2022-07-29T08:52:38;18.20;71.40
3281;DHT22;1652;51.318;6.202;2022-07-29T08:55:07;18.40;64.10
3281;DHT22;1652;51.318;6.202;2022-07-29T08:57:34;18.70;1.00
3281;DHT22;1652;51.318;6.202;2022-07-29T09:00:07;19.30;3.40
3281;DHT22;1652;51.318;6.202;2022-07-29T09:02:41;20.40;1.00
3281;DHT22;1652;51.318;6.202;2022-07-29T09:05:13;21.70;1.00
3281;DHT22;1652;51.318;6.202;2022-07-29T09:07:40;22.80;99.90
3281;DHT22;1652;51.318;6.202;2022-07-29T09:10:10;23.50;1.00
3281;DHT22;1652;51.318;6.202;2022-07-29T09:12:37;24.00;1.00
3281;DHT22;1652;51.318;6.202;2022-07-29T09:15:04;24.30;1.00
3281;DHT22;1652;51.318;6.202;2022-07-29T09:17:43;24.40;1.00
3281;DHT22;1652;51.318;6.202;2022-07-29T09:20:18;24.70;1.00
3281;DHT22;1652;51.318;6.202;2022-07-29T09:22:46;24.40;1.00
3281;DHT22;1652;51.318;6.202;2022-07-29T09:25:35;24.30;99.90
3281;DHT22;1652;51.318;6.202;2022-07-29T09:28:20;24.30;99.90
3281;DHT22;1652;51.318;6.202;2022-07-29T09:30:58;24.00;99.90
3281;DHT22;1652;51.318;6.202;2022-07-29T09:33:32;23.80;1.00
3281;DHT22;1652;51.318;6.202;2022-07-29T09:36:09;23.10;1.00
3281;DHT22;1652;51.318;6.202;2022-07-29T09:38:38;22.60;5.30
3281;DHT22;1652;51.318;6.202;2022-07-29T09:41:05;22.10;99.90
3281;DHT22;1652;51.318;6.202;2022-07-29T09:43:33;21.70;99.90
3281;DHT22;1652;51.318;6.202;2022-07-29T09:46:11;21.50;1.00
3281;DHT22;1652;51.318;6.202;2022-07-29T09:48:38;21.60;1.00
3281;DHT22;1652;51.318;6.202;2022-07-29T09:51:19;22.10;1.00
3281;DHT22;1652;51.318;6.202;2022-07-29T09:53:53;22.20;1.00
3281;DHT22;1652;51.318;6.202;2022-07-29T09:56:41;22.50;91.20
3281;DHT22;1652;51.318;6.202;2022-07-29T09:59:08;22.80;1.00
3281;DHT22;1652;51.318;6.202;2022-07-29T10:01:36;22.70;1.00
3281;DHT22;1652;51.318;6.202;2022-07-29T10:04:03;22.50;1.00
3281;DHT22;1652;51.318;6.202;2022-07-29T10:06:30;22.30;1.00
3281;DHT22;1652;51.318;6.202;2022-07-29T10:09:10;22.00;99.90
3281;DHT22;1652;51.318;6.202;2022-07-29T10:11:37;21.90;99.90
3281;DHT22;1652;51.318;6.202;2022-07-29T10:14:15;21.70;38.70
3281;DHT22;1652;51.318;6.202;2022-07-29T10:16:43;21.60;15.20
3281;DHT22;1652;51.318;6.202;2022-07-29T10:19:10;21.40;1.00
3281;DHT22;1652;51.318;6.202;2022-07-29T10:21:37;21.50;99.90
3281;DHT22;1652;51.318;6.202;2022-07-29T10:24:06;21.50;90.30
3281;DHT22;1652;51.318;6.202;2022-07-29T10:26:41;21.50;99.90
3281;DHT22;1652;51.318;6.202;2022-07-29T10:29:08;21.40;1.00
3281;DHT22;1652;51.318;6.202;2022-07-29T10:43:33;21.80;99.90
3281;DHT22;1652;51.318;6.202;2022-07-29T10:46:04;21.70;99.90
3281;DHT22;1652;51.318;6.202;2022-07-29T10:48:33;22.00;99.90
3281;DHT22;1652;51.318;6.202;2022-07-29T10:51:04;22.00;99.90
3281;DHT22;1652;51.318;6.202;2022-07-29T10:53:52;22.00;1.00
3281;DHT22;1652;51.318;6.202;2022-07-29T10:56:32;22.10;99.90
3281;DHT22;1652;51.318;6.202;2022-07-29T11:01:49;22.30;1.00
3281;DHT22;1652;51.318;6.202;2022-07-29T11:07:12;22.00;23.20
3281;DHT22;1652;51.318;6.202;2022-07-29T11:09:40;21.80;76.50
3281;DHT22;1652;51.318;6.202;2022-07-29T11:15:24;22.00;1.00
3281;DHT22;1652;51.318;6.202;2022-07-29T11:23:34;22.20;99.90
3281;DHT22;1652;51.318;6.202;2022-07-29T11:31:39;22.40;60.90
3281;DHT22;1652;51.318;6.202;2022-07-29T11:34:27;22.20;1.00
3281;DHT22;1652;51.318;6.202;2022-07-29T11:39:39;22.40;99.90
3281;DHT22;1652;51.318;6.202;2022-07-29T11:45:07;22.90;99.90
3281;DHT22;1652;51.318;6.202;2022-07-29T11:47:58;23.00;99.90
3281;DHT22;1652;51.318;6.202;2022-07-29T11:50:45;23.00;1.00
3281;DHT22;1652;51.318;6.202;2022-07-29T11:53:14;23.10;99.90
3281;DHT22;1652;51.318;6.202;2022-07-29T11:55:42;23.20;1.00
3281;DHT22;1652;51.318;6.202;2022-07-29T11:58:22;23.20;99.90
3281;DHT22;1652;51.318;6.202;2022-07-29T12:00:52;23.10;1.00
3281;DHT22;1652;51.318;6.202;2022-07-29T12:03:28;23.40;99.90
3281;DHT22;1652;51.318;6.202;2022-07-29T12:06:15;23.50;99.90
3281;DHT22;1652;51.318;6.202;2022-07-29T12:08:46;23.60;99.90
3281;DHT22;1652;51.318;6.202;2022-07-29T12:11:18;23.40;1.00
3281;DHT22;1652;51.318;6.202;2022-07-29T12:13:48;23.50;99.90
3281;DHT22;1652;51.318;6.202;2022-07-29T12:16:15;23.60;1.00
3281;DHT22;1652;51.318;6.202;2022-07-29T12:18:59;23.70;1.00
3281;DHT22;1652;51.318;6.202;2022-07-29T12:21:29;23.80;1.00
3281;DHT22;1652;51.318;6.202;2022-07-29T12:23:57;24.00;99.90
3281;DHT22;1652;51.318;6.202;2022-07-29T12:26:32;24.00;99.90
3281;DHT22;1652;51.318;6.202;2022-07-29T12:29:01;24.00;1.00
3281;DHT22;1652;51.318;6.202;2022-07-29T12:31:29;24.00;1.00
3281;DHT22;1652;51.318;6.202;2022-07-29T12:34:15;24.30;99.90
3281;DHT22;1652;51.318;6.202;2022-07-29T12:36:42;24.30;99.90
3281;DHT22;1652;51.318;6.202;2022-07-29T12:39:10;24.40;99.90
3281;DHT22;1652;51.318;6.202;2022-07-29T12:41:38;24.60;1.00
3281;DHT22;1652;51.318;6.202;2022-07-29T12:44:05;24.80;99.90
3281;DHT22;1652;51.318;6.202;2022-07-29T12:46:32;25.00;99.90
3281;DHT22;1652;51.318;6.202;2022-07-29T12:49:00;25.10;99.90
3281;DHT22;1652;51.318;6.202;2022-07-29T12:51:37;25.20;1.00
3281;DHT22;1652;51.318;6.202;2022-07-29T12:54:15;25.20;99.90
3281;DHT22;1652;51.318;6.202;2022-07-29T12:56:44;24.90;1.00
3281;DHT22;1652;51.318;6.202;2022-07-29T12:59:19;24.70;1.00
3281;DHT22;1652;51.318;6.202;2022-07-29T13:01:48;24.60;99.90
3281;DHT22;1652;51.318;6.202;2022-07-29T13:04:26;24.80;99.90
3281;DHT22;1652;51.318;6.202;2022-07-29T13:07:03;24.60;1.00
3281;DHT22;1652;51.318;6.202;2022-07-29T13:09:50;24.30;99.90
3281;DHT22;1652;51.318;6.202;2022-07-29T13:12:17;23.90;1.00
3281;DHT22;1652;51.318;6.202;2022-07-29T13:14:46;23.50;1.00
3281;DHT22;1652;51.318;6.202;2022-07-29T13:17:19;23.50;1.00
3281;DHT22;1652;51.318;6.202;2022-07-29T13:19:49;23.40;99.90
3281;DHT22;1652;51.318;6.202;2022-07-29T13:22:23;23.30;1.00
3281;DHT22;1652;51.318;6.202;2022-07-29T13:24:51;23.30;99.90
3281;DHT22;1652;51.318;6.202;2022-07-29T13:27:21;23.50;1.00
3281;DHT22;1652;51.318;6.202;2022-07-29T13:29:49;23.50;1.00
3281;DHT22;1652;51.318;6.202;2022-07-29T13:32:20;23.40;1.00
3281;DHT22;1652;51.318;6.202;2022-07-29T13:34:59;23.40;22.10
3281;DHT22;1652;51.318;6.202;2022-07-29T13:37:31;23.40;96.70
3281;DHT22;1652;51.318;6.202;2022-07-29T13:40:02;23.50;1.00
3281;DHT22;1652;51.318;6.202;2022-07-29T13:42:30;23.60;1.00
3281;DHT22;1652;51.318;6.202;2022-07-29T13:44:58;23.50;99.90
3281;DHT22;1652;51.318;6.202;2022-07-29T13:47:25;23.60;99.90
3281;DHT22;1652;51.318;6.202;2022-07-29T13:50:00;23.60;1.00
3281;DHT22;1652;51.318;6.202;2022-07-29T13:52:27;23.60;25.10
3281;DHT22;1652;51.318;6.202;2022-07-29T13:54:54;23.60;1.00
3281;DHT22;1652;51.318;6.202;2022-07-29T13:57:21;23.60;1.00
3281;DHT22;1652;51.318;6.202;2022-07-29T13:59:48;23.60;99.90
3281;DHT22;1652;51.318;6.202;2022-07-29T14:02:20;23.80;99.90
3281;DHT22;1652;51.318;6.202;2022-07-29T14:04:54;23.80;99.90
3281;DHT22;1652;51.318;6.202;2022-07-29T14:07:22;23.80;99.90
3281;DHT22;1652;51.318;6.202;2022-07-29T14:09:49;24.00;1.00
3281;DHT22;1652;51.318;6.202;2022-07-29T14:12:16;24.20;1.00
3281;DHT22;1652;51.318;6.202;2022-07-29T14:14:44;24.10;1.00
3281;DHT22;1652;51.318;6.202;2022-07-29T14:17:13;24.20;1.00
3281;DHT22;1652;51.318;6.202;2022-07-29T14:19:40;24.20;1.00
3281;DHT22;1652;51.318;6.202;2022-07-29T14:22:08;24.30;1.00
3281;DHT22;1652;51.318;6.202;2022-07-29T14:24:36;24.40;1.00
3281;DHT22;1652;51.318;6.202;2022-07-29T14:27:05;24.40;1.00
3281;DHT22;1652;51.318;6.202;2022-07-29T14:29:33;24.40;1.00
3281;DHT22;1652;51.318;6.202;2022-07-29T14:32:07;24.20;1.00
3281;DHT22;1652;51.318;6.202;2022-07-29T14:34:36;24.20;18.90
3281;DHT22;1652;51.318;6.202;2022-07-29T14:37:04;24.30;1.00
3281;DHT22;1652;51.318;6.202;2022-07-29T14:39:41;24.40;1.00
3281;DHT22;1652;51.318;6.202;2022-07-29T14:42:10;24.50;1.00
3281;DHT22;1652;51.318;6.202;2022-07-29T14:44:38;24.60;1.00
3281;DHT22;1652;51.318;6.202;2022-07-29T14:47:06;24.70;1.00
3281;DHT22;1652;51.318;6.202;2022-07-29T14:49:34;24.60;99.90
3281;DHT22;1652;51.318;6.202;2022-07-29T14:52:01;24.60;1.00
3281;DHT22;1652;51.318;6.202;2022-07-29T14:54:28;24.60;1.00
3281;DHT22;1652;51.318;6.202;2022-07-29T14:56:55;24.60;1.00
3281;DHT22;1652;51.318;6.202;2022-07-29T14:59:25;24.60;1.00
3281;DHT22;1652;51.318;6.202;2022-07-29T15:01:52;24.60;1.00
3281;DHT22;1652;51.318;6.202;2022-07-29T15:04:20;24.60;1.00
3281;DHT22;1652;51.318;6.202;2022-07-29T15:06:47;24.60;1.00
3281;DHT22;1652;51.318;6.202;2022-07-29T15:09:14;24.60;1.00
3281;DHT22;1652;51.318;6.202;2022-07-29T15:11:41;24.60;1.00
3281;DHT22;1652;51.318;6.202;2022-07-29T15:14:08;24.60;1.00
3281;DHT22;1652;51.318;6.202;2022-07-29T15:16:36;24.60;1.00
3281;DHT22;1652;51.318;6.202;2022-07-29T15:19:04;24.70;1.00
3281;DHT22;1652;51.318;6.202;2022-07-29T15:21:31;24.80;99.90
3281;DHT22;1652;51.318;6.202;2022-07-29T15:23:58;24.90;1.00
3281;DHT22;1652;51.318;6.202;2022-07-29T15:26:25;25.00;99.90
3281;DHT22;1652;51.318;6.202;2022-07-29T15:28:52;25.10;99.90
3281;DHT22;1652;51.318;6.202;2022-07-29T15:31:19;25.30;1.00
3281;DHT22;1652;51.318;6.202;2022-07-29T15:33:46;25.60;99.90
3281;DHT22;1652;51.318;6.202;2022-07-29T15:36:13;25.70;99.90
3281;DHT22;1652;51.318;6.202;2022-07-29T15:39:00;25.80;99.90
3281;DHT22;1652;51.318;6.202;2022-07-29T15:41:27;25.80;99.90
3281;DHT22;1652;51.318;6.202;2022-07-29T15:43:55;26.00;99.90
3281;DHT22;1652;51.318;6.202;2022-07-29T15:46:22;26.00;99.90
3281;DHT22;1652;51.318;6.202;2022-07-29T15:49:08;25.90;99.90
3281;DHT22;1652;51.318;6.202;2022-07-29T15:51:35;25.90;99.90
3281;DHT22;1652;51.318;6.202;2022-07-29T15:54:03;25.90;99.90
3281;DHT22;1652;51.318;6.202;2022-07-29T15:56:30;25.90;99.90
3281;DHT22;1652;51.318;6.202;2022-07-29T15:58:57;25.90;99.90
3281;DHT22;1652;51.318;6.202;2022-07-29T16:01:24;25.90;99.90
3281;DHT22;1652;51.318;6.202;2022-07-29T16:03:52;25.80;99.90
3281;DHT22;1652;51.318;6.202;2022-07-29T16:06:19;25.70;99.90
3281;DHT22;1652;51.318;6.202;2022-07-29T16:08:46;25.90;99.90
3281;DHT22;1652;51.318;6.202;2022-07-29T16:11:13;25.90;99.90
3281;DHT22;1652;51.318;6.202;2022-07-29T16:13:39;25.90;99.90
3281;DHT22;1652;51.318;6.202;2022-07-29T16:16:07;25.70;99.90
3281;DHT22;1652;51.318;6.202;2022-07-29T16:18:34;25.50;99.90
3281;DHT22;1652;51.318;6.202;2022-07-29T16:21:01;25.30;99.90
3281;DHT22;1652;51.318;6.202;2022-07-29T16:23:28;25.30;99.90
3281;DHT22;1652;51.318;6.202;2022-07-29T16:25:55;25.20;99.90
3281;DHT22;1652;51.318;6.202;2022-07-29T16:28:27;25.20;99.90
3281;DHT22;1652;51.318;6.202;2022-07-29T16:30:54;25.30;99.90
3281;DHT22;1652;51.318;6.202;2022-07-29T16:33:23;25.30;99.90
3281;DHT22;1652;51.318;6.202;2022-07-29T16:35:51;25.30;99.90
3281;DHT22;1652;51.318;6.202;2022-07-29T16:38:18;25.30;99.90
3281;DHT22;1652;51.318;6.202;2022-07-29T16:40:45;25.40;99.90
3281;DHT22;1652;51.318;6.202;2022-07-29T16:43:12;25.40;99.90
3281;DHT22;1652;51.318;6.202;2022-07-29T16:45:39;25.40;99.90
3281;DHT22;1652;51.318;6.202;2022-07-29T16:48:13;25.40;99.90
3281;DHT22;1652;51.318;6.202;2022-07-29T16:50:40;25.40;99.90
3281;DHT22;1652;51.318;6.202;2022-07-29T16:53:09;25.40;99.90
3281;DHT22;1652;51.318;6.202;2022-07-29T16:55:36;25.20;99.90
3281;DHT22;1652;51.318;6.202;2022-07-29T16:58:03;25.10;99.90
3281;DHT22;1652;51.318;6.202;2022-07-29T17:00:31;25.10;99.90
3281;DHT22;1652;51.318;6.202;2022-07-29T17:02:58;25.00;99.90
3281;DHT22;1652;51.318;6.202;2022-07-29T17:05:26;24.80;99.90
3281;DHT22;1652;51.318;6.202;2022-07-29T17:07:53;24.70;99.90
3281;DHT22;1652;51.318;6.202;2022-07-29T17:10:20;24.60;99.90
3281;DHT22;1652;51.318;6.202;2022-07-29T17:12:47;24.70;99.90
3281;DHT22;1652;51.318;6.202;2022-07-29T17:15:14;24.60;99.90
3281;DHT22;1652;51.318;6.202;2022-07-29T17:17:44;24.50;99.90
3281;DHT22;1652;51.318;6.202;2022-07-29T17:20:22;24.40;99.90
3281;DHT22;1652;51.318;6.202;2022-07-29T17:22:49;24.30;99.90